Hlavní strana
METAR-TAF:

METAR-TAF

Letiště :

Stavanger, Norsko

zeměpisná šířka: 58-53N, zeměpisná délka: 005-38E, výška: 0 m

Aktuální stav počasí

Zpráva byla vytvořena před 18 minutami, v 15:50 UTC
Severoseverozápadní vítr 5 kt, proměnlivý mezi západním a severním
Teplota 8°C
Vlhkost vzduchu 76%
Tlak 1035 hPa
Viditelnost 10 km a více
Skoro jasno ve výšce 1500 ft

METAR: ENZV 281550Z 33005KT 270V360 9999 FEW015 08/04 Q1035 NOSIG

Čas: 17:08 (16:08 UTC)

Předpověď počasí

Předpověď platná od 28 v 12 UTC do 01 v 12 UTC
Severní vítr 5 kt
Viditelnost 10 km a více
Skoro jasno ve výšce 1000 ft
Dočasný
od 28 v 16 UTC do 01 v 10 UTC
Viditelnost: 0800 m
ve výšce 200 ft
mlha

TAF: ENZV 2812/0112 35005KT 9999 FEW010 TEMPO 2816/0110 0800 FG VV002

Stav a předpovědi počasí z více než 4 000 letišť (zprávy METAR a TAF).

Červené a žluté tečky na mapě představují dostupné meteorologické stanice.

Když kurzor umístíte na tečku, zobrazí se název stanice.

Pak kliknutím zobrazíte stav a předpověď počasí.

Chcete-li změnit mapu, kliknutím na zelené tlačítko se znaménkem +mapu přiblížíte, kliknutím na zelené tlačítko se znaménkem – mapu oddálíte a kliknutím na zelené šipky přejdete na sousední mapy.


METAR-TAF: